sensor_id;sensor_type;location;lat;lon;timestamp;P1;durP1;ratioP1;P2;durP2;ratioP2
79025;SDS011;71097;44.760;37.726;2023-08-20T00:00:53;4.95;;;3.08;;
79025;SDS011;71097;44.760;37.726;2023-08-20T00:01:56;6.22;;;3.95;;
79025;SDS011;71097;44.760;37.726;2023-08-20T00:03:08;6.38;;;3.95;;
79025;SDS011;71097;44.760;37.726;2023-08-20T00:04:12;5.45;;;3.13;;
79025;SDS011;71097;44.760;37.726;2023-08-20T00:05:15;6.65;;;3.28;;
79025;SDS011;71097;44.760;37.726;2023-08-20T00:06:17;7.85;;;3.60;;
79025;SDS011;71097;44.760;37.726;2023-08-20T00:07:19;5.20;;;3.22;;
79025;SDS011;71097;44.760;37.726;2023-08-20T00:08:20;6.97;;;3.30;;
79025;SDS011;71097;44.760;37.726;2023-08-20T00:09:42;6.55;;;3.67;;
79025;SDS011;71097;44.760;37.726;2023-08-20T00:10:44;6.00;;;3.25;;
79025;SDS011;71097;44.760;37.726;2023-08-20T00:12:02;6.78;;;3.70;;
79025;SDS011;71097;44.760;37.726;2023-08-20T00:13:06;5.70;;;3.58;;
79025;SDS011;71097;44.760;37.726;2023-08-20T00:14:07;7.88;;;3.50;;
79025;SDS011;71097;44.760;37.726;2023-08-20T00:15:15;6.45;;;3.20;;
79025;SDS011;71097;44.760;37.726;2023-08-20T00:16:17;5.90;;;3.25;;
79025;SDS011;71097;44.760;37.726;2023-08-20T00:17:19;5.75;;;3.33;;
79025;SDS011;71097;44.760;37.726;2023-08-20T00:18:41;8.73;;;4.20;;
79025;SDS011;71097;44.760;37.726;2023-08-20T00:19:43;6.20;;;3.53;;
79025;SDS011;71097;44.760;37.726;2023-08-20T00:20:45;6.13;;;3.40;;
79025;SDS011;71097;44.760;37.726;2023-08-20T00:21:47;7.50;;;3.50;;
79025;SDS011;71097;44.760;37.726;2023-08-20T00:22:48;6.35;;;2.92;;
79025;SDS011;71097;44.760;37.726;2023-08-20T00:24:11;6.82;;;3.03;;
79025;SDS011;71097;44.760;37.726;2023-08-20T00:25:33;7.15;;;3.80;;
79025;SDS011;71097;44.760;37.726;2023-08-20T00:26:55;5.22;;;3.88;;
79025;SDS011;71097;44.760;37.726;2023-08-20T00:27:57;5.95;;;3.65;;
79025;SDS011;71097;44.760;37.726;2023-08-20T00:29:18;5.55;;;3.40;;
79025;SDS011;71097;44.760;37.726;2023-08-20T00:30:20;5.68;;;3.70;;
79025;SDS011;71097;44.760;37.726;2023-08-20T00:31:22;5.97;;;3.47;;
79025;SDS011;71097;44.760;37.726;2023-08-20T00:32:25;5.47;;;3.13;;
79025;SDS011;71097;44.760;37.726;2023-08-20T00:33:28;7.43;;;3.53;;
79025;SDS011;71097;44.760;37.726;2023-08-20T00:34:33;7.00;;;3.67;;
79025;SDS011;71097;44.760;37.726;2023-08-20T00:35:35;5.45;;;3.42;;
79025;SDS011;71097;44.760;37.726;2023-08-20T00:36:57;6.00;;;3.42;;
79025;SDS011;71097;44.760;37.726;2023-08-20T00:38:22;5.28;;;3.38;;
79025;SDS011;71097;44.760;37.726;2023-08-20T00:41:05;6.00;;;4.00;;
79025;SDS011;71097;44.760;37.726;2023-08-20T00:42:27;6.07;;;3.67;;
79025;SDS011;71097;44.760;37.726;2023-08-20T00:43:51;8.27;;;3.20;;
79025;SDS011;71097;44.760;37.726;2023-08-20T00:45:12;9.02;;;3.33;;
79025;SDS011;71097;44.760;37.726;2023-08-20T00:46:34;8.27;;;3.90;;
79025;SDS011;71097;44.760;37.726;2023-08-20T00:47:56;7.60;;;4.45;;
79025;SDS011;71097;44.760;37.726;2023-08-20T00:49:18;7.18;;;4.00;;
79025;SDS011;71097;44.760;37.726;2023-08-20T00:50:40;6.18;;;3.53;;
79025;SDS011;71097;44.760;37.726;2023-08-20T00:52:02;4.80;;;3.55;;
79025;SDS011;71097;44.760;37.726;2023-08-20T00:53:05;6.00;;;3.63;;
79025;SDS011;71097;44.760;37.726;2023-08-20T00:54:09;6.95;;;4.20;;
79025;SDS011;71097;44.760;37.726;2023-08-20T00:55:11;7.57;;;3.88;;
79025;SDS011;71097;44.760;37.726;2023-08-20T00:56:16;8.10;;;3.85;;
79025;SDS011;71097;44.760;37.726;2023-08-20T00:57:18;6.35;;;3.85;;
79025;SDS011;71097;44.760;37.726;2023-08-20T00:58:20;5.90;;;3.63;;
79025;SDS011;71097;44.760;37.726;2023-08-20T00:59:22;6.95;;;4.00;;
79025;SDS011;71097;44.760;37.726;2023-08-20T01:00:24;4.90;;;3.28;;
79025;SDS011;71097;44.760;37.726;2023-08-20T01:01:27;5.32;;;3.40;;
79025;SDS011;71097;44.760;37.726;2023-08-20T01:02:29;7.03;;;4.32;;
79025;SDS011;71097;44.760;37.726;2023-08-20T01:03:30;6.57;;;3.78;;
79025;SDS011;71097;44.760;37.726;2023-08-20T01:04:32;7.10;;;4.18;;
79025;SDS011;71097;44.760;37.726;2023-08-20T01:05:39;5.80;;;3.67;;
79025;SDS011;71097;44.760;37.726;2023-08-20T01:06:50;6.07;;;3.50;;
79025;SDS011;71097;44.760;37.726;2023-08-20T01:07:57;5.80;;;3.72;;
79025;SDS011;71097;44.760;37.726;2023-08-20T01:09:08;6.55;;;3.85;;
79025;SDS011;71097;44.760;37.726;2023-08-20T01:12:00;7.05;;;3.80;;
79025;SDS011;71097;44.760;37.726;2023-08-20T01:13:05;6.18;;;3.75;;
79025;SDS011;71097;44.760;37.726;2023-08-20T01:14:14;10.05;;;4.72;;
79025;SDS011;71097;44.760;37.726;2023-08-20T01:15:17;5.60;;;4.28;;
79025;SDS011;71097;44.760;37.726;2023-08-20T01:16:18;6.45;;;4.50;;
79025;SDS011;71097;44.760;37.726;2023-08-20T01:17:20;7.90;;;4.55;;
79025;SDS011;71097;44.760;37.726;2023-08-20T01:19:25;9.73;;;4.68;;
79025;SDS011;71097;44.760;37.726;2023-08-20T01:20:30;8.75;;;5.47;;
79025;SDS011;71097;44.760;37.726;2023-08-20T01:21:43;10.02;;;4.97;;
79025;SDS011;71097;44.760;37.726;2023-08-20T01:25:49;12.18;;;5.13;;
79025;SDS011;71097;44.760;37.726;2023-08-20T01:28:49;8.02;;;4.72;;
79025;SDS011;71097;44.760;37.726;2023-08-20T01:30:12;6.20;;;4.40;;
79025;SDS011;71097;44.760;37.726;2023-08-20T01:31:15;12.52;;;4.25;;
79025;SDS011;71097;44.760;37.726;2023-08-20T01:32:40;7.05;;;4.97;;
79025;SDS011;71097;44.760;37.726;2023-08-20T01:34:03;8.23;;;4.72;;
79025;SDS011;71097;44.760;37.726;2023-08-20T01:36:57;12.00;;;4.70;;
79025;SDS011;71097;44.760;37.726;2023-08-20T01:37:58;7.05;;;4.47;;
79025;SDS011;71097;44.760;37.726;2023-08-20T01:39:20;7.03;;;3.97;;
79025;SDS011;71097;44.760;37.726;2023-08-20T01:40:22;6.07;;;4.22;;
79025;SDS011;71097;44.760;37.726;2023-08-20T01:41:43;6.75;;;4.13;;
79025;SDS011;71097;44.760;37.726;2023-08-20T01:43:05;8.40;;;4.75;;
79025;SDS011;71097;44.760;37.726;2023-08-20T01:44:07;7.93;;;4.63;;
79025;SDS011;71097;44.760;37.726;2023-08-20T01:45:29;8.43;;;4.30;;
79025;SDS011;71097;44.760;37.726;2023-08-20T01:46:31;7.20;;;4.22;;
79025;SDS011;71097;44.760;37.726;2023-08-20T01:47:33;6.65;;;3.95;;
79025;SDS011;71097;44.760;37.726;2023-08-20T01:48:35;6.13;;;3.83;;
79025;SDS011;71097;44.760;37.726;2023-08-20T01:49:37;6.03;;;4.18;;
79025;SDS011;71097;44.760;37.726;2023-08-20T01:50:38;7.97;;;3.72;;
79025;SDS011;71097;44.760;37.726;2023-08-20T01:51:41;5.85;;;4.20;;
79025;SDS011;71097;44.760;37.726;2023-08-20T01:52:42;6.13;;;4.00;;
79025;SDS011;71097;44.760;37.726;2023-08-20T01:53:44;7.18;;;4.38;;
79025;SDS011;71097;44.760;37.726;2023-08-20T01:54:45;8.57;;;4.85;;
79025;SDS011;71097;44.760;37.726;2023-08-20T01:55:47;7.80;;;3.85;;
79025;SDS011;71097;44.760;37.726;2023-08-20T01:56:49;7.95;;;4.38;;
79025;SDS011;71097;44.760;37.726;2023-08-20T01:57:50;8.10;;;4.15;;
79025;SDS011;71097;44.760;37.726;2023-08-20T01:58:52;9.73;;;4.68;;
79025;SDS011;71097;44.760;37.726;2023-08-20T01:59:55;8.30;;;3.65;;
79025;SDS011;71097;44.760;37.726;2023-08-20T02:01:17;7.40;;;4.00;;
79025;SDS011;71097;44.760;37.726;2023-08-20T02:02:19;9.20;;;3.75;;
79025;SDS011;71097;44.760;37.726;2023-08-20T02:03:21;7.40;;;4.85;;
79025;SDS011;71097;44.760;37.726;2023-08-20T02:04:43;6.32;;;3.92;;
79025;SDS011;71097;44.760;37.726;2023-08-20T02:05:44;7.72;;;4.90;;
79025;SDS011;71097;44.760;37.726;2023-08-20T02:07:06;6.57;;;4.03;;
79025;SDS011;71097;44.760;37.726;2023-08-20T02:08:28;9.68;;;4.55;;
79025;SDS011;71097;44.760;37.726;2023-08-20T02:09:50;7.05;;;4.00;;
79025;SDS011;71097;44.760;37.726;2023-08-20T02:11:11;7.47;;;4.40;;
79025;SDS011;71097;44.760;37.726;2023-08-20T02:12:13;7.60;;;4.85;;
79025;SDS011;71097;44.760;37.726;2023-08-20T02:13:16;9.32;;;4.50;;
79025;SDS011;71097;44.760;37.726;2023-08-20T02:14:18;5.95;;;4.15;;
79025;SDS011;71097;44.760;37.726;2023-08-20T02:15:19;7.70;;;3.92;;
79025;SDS011;71097;44.760;37.726;2023-08-20T02:16:21;8.45;;;4.32;;
79025;SDS011;71097;44.760;37.726;2023-08-20T02:17:23;7.03;;;4.57;;
79025;SDS011;71097;44.760;37.726;2023-08-20T02:18:24;8.50;;;4.15;;
79025;SDS011;71097;44.760;37.726;2023-08-20T02:19:46;7.28;;;4.95;;
79025;SDS011;71097;44.760;37.726;2023-08-20T02:20:48;9.15;;;4.70;;
79025;SDS011;71097;44.760;37.726;2023-08-20T02:22:10;7.57;;;4.53;;
79025;SDS011;71097;44.760;37.726;2023-08-20T02:23:12;6.65;;;4.10;;
79025;SDS011;71097;44.760;37.726;2023-08-20T02:24:13;9.80;;;4.88;;
79025;SDS011;71097;44.760;37.726;2023-08-20T02:25:38;10.20;;;4.65;;
79025;SDS011;71097;44.760;37.726;2023-08-20T02:26:39;8.40;;;4.90;;
79025;SDS011;71097;44.760;37.726;2023-08-20T02:27:41;8.38;;;5.22;;
79025;SDS011;71097;44.760;37.726;2023-08-20T02:28:42;8.98;;;4.32;;
79025;SDS011;71097;44.760;37.726;2023-08-20T02:30:04;9.68;;;5.72;;
79025;SDS011;71097;44.760;37.726;2023-08-20T02:31:06;10.40;;;4.78;;
79025;SDS011;71097;44.760;37.726;2023-08-20T02:32:28;10.90;;;4.72;;
79025;SDS011;71097;44.760;37.726;2023-08-20T02:33:32;7.40;;;4.38;;
79025;SDS011;71097;44.760;37.726;2023-08-20T02:34:34;6.97;;;4.30;;
79025;SDS011;71097;44.760;37.726;2023-08-20T02:35:38;6.60;;;4.53;;
79025;SDS011;71097;44.760;37.726;2023-08-20T02:36:57;5.90;;;3.88;;
79025;SDS011;71097;44.760;37.726;2023-08-20T02:37:59;8.13;;;4.57;;
79025;SDS011;71097;44.760;37.726;2023-08-20T02:39:00;8.68;;;4.40;;
79025;SDS011;71097;44.760;37.726;2023-08-20T02:40:03;6.93;;;4.57;;
79025;SDS011;71097;44.760;37.726;2023-08-20T02:41:07;6.57;;;4.25;;
79025;SDS011;71097;44.760;37.726;2023-08-20T02:42:10;8.15;;;3.97;;
79025;SDS011;71097;44.760;37.726;2023-08-20T02:43:12;5.50;;;4.03;;
79025;SDS011;71097;44.760;37.726;2023-08-20T02:44:13;7.85;;;4.55;;
79025;SDS011;71097;44.760;37.726;2023-08-20T02:45:15;9.10;;;4.57;;
79025;SDS011;71097;44.760;37.726;2023-08-20T02:46:16;8.68;;;4.82;;
79025;SDS011;71097;44.760;37.726;2023-08-20T02:47:18;8.77;;;4.95;;
79025;SDS011;71097;44.760;37.726;2023-08-20T02:48:19;7.35;;;4.00;;
79025;SDS011;71097;44.760;37.726;2023-08-20T02:49:21;7.75;;;4.13;;
79025;SDS011;71097;44.760;37.726;2023-08-20T02:50:22;10.52;;;4.05;;
79025;SDS011;71097;44.760;37.726;2023-08-20T02:51:46;6.35;;;4.05;;
79025;SDS011;71097;44.760;37.726;2023-08-20T02:52:49;9.40;;;4.70;;
79025;SDS011;71097;44.760;37.726;2023-08-20T02:53:51;8.02;;;3.95;;
79025;SDS011;71097;44.760;37.726;2023-08-20T02:54:52;5.70;;;3.45;;
79025;SDS011;71097;44.760;37.726;2023-08-20T02:55:54;9.60;;;4.22;;
79025;SDS011;71097;44.760;37.726;2023-08-20T02:57:14;6.88;;;3.95;;
79025;SDS011;71097;44.760;37.726;2023-08-20T02:58:16;7.05;;;4.55;;
79025;SDS011;71097;44.760;37.726;2023-08-20T02:59:17;9.07;;;5.57;;
79025;SDS011;71097;44.760;37.726;2023-08-20T03:00:19;8.77;;;4.75;;
79025;SDS011;71097;44.760;37.726;2023-08-20T03:01:21;7.95;;;4.43;;
79025;SDS011;71097;44.760;37.726;2023-08-20T03:02:24;9.82;;;4.53;;
79025;SDS011;71097;44.760;37.726;2023-08-20T03:03:25;10.30;;;4.75;;
79025;SDS011;71097;44.760;37.726;2023-08-20T03:04:28;8.50;;;4.70;;
79025;SDS011;71097;44.760;37.726;2023-08-20T03:05:29;11.38;;;4.35;;
79025;SDS011;71097;44.760;37.726;2023-08-20T03:06:31;9.75;;;4.30;;
79025;SDS011;71097;44.760;37.726;2023-08-20T03:07:33;10.02;;;4.57;;
79025;SDS011;71097;44.760;37.726;2023-08-20T03:08:34;7.55;;;4.53;;
79025;SDS011;71097;44.760;37.726;2023-08-20T03:09:36;10.65;;;4.40;;
79025;SDS011;71097;44.760;37.726;2023-08-20T03:10:37;8.52;;;4.43;;
79025;SDS011;71097;44.760;37.726;2023-08-20T03:11:40;9.38;;;4.47;;
79025;SDS011;71097;44.760;37.726;2023-08-20T03:12:41;10.55;;;4.85;;
79025;SDS011;71097;44.760;37.726;2023-08-20T03:13:44;7.18;;;4.53;;
79025;SDS011;71097;44.760;37.726;2023-08-20T03:14:46;10.90;;;4.72;;
79025;SDS011;71097;44.760;37.726;2023-08-20T03:15:47;8.13;;;4.30;;
79025;SDS011;71097;44.760;37.726;2023-08-20T03:16:49;8.75;;;4.57;;
79025;SDS011;71097;44.760;37.726;2023-08-20T03:17:51;9.48;;;4.53;;
79025;SDS011;71097;44.760;37.726;2023-08-20T03:18:52;9.30;;;4.78;;
79025;SDS011;71097;44.760;37.726;2023-08-20T03:19:55;15.85;;;4.97;;
79025;SDS011;71097;44.760;37.726;2023-08-20T03:20:58;8.07;;;4.65;;
79025;SDS011;71097;44.760;37.726;2023-08-20T03:22:00;10.38;;;4.70;;
79025;SDS011;71097;44.760;37.726;2023-08-20T03:23:02;10.38;;;4.75;;
79025;SDS011;71097;44.760;37.726;2023-08-20T03:24:04;7.43;;;4.93;;
79025;SDS011;71097;44.760;37.726;2023-08-20T03:25:06;9.77;;;5.15;;
79025;SDS011;71097;44.760;37.726;2023-08-20T03:26:08;9.77;;;4.75;;
79025;SDS011;71097;44.760;37.726;2023-08-20T03:27:09;9.02;;;4.70;;
79025;SDS011;71097;44.760;37.726;2023-08-20T03:28:11;9.55;;;5.25;;
79025;SDS011;71097;44.760;37.726;2023-08-20T03:29:12;10.15;;;5.25;;
79025;SDS011;71097;44.760;37.726;2023-08-20T03:30:14;10.35;;;5.47;;
79025;SDS011;71097;44.760;37.726;2023-08-20T03:31:19;9.27;;;5.57;;
79025;SDS011;71097;44.760;37.726;2023-08-20T03:32:21;11.80;;;4.88;;
79025;SDS011;71097;44.760;37.726;2023-08-20T03:33:41;9.20;;;5.43;;
79025;SDS011;71097;44.760;37.726;2023-08-20T03:34:43;10.95;;;5.13;;
79025;SDS011;71097;44.760;37.726;2023-08-20T03:35:45;9.75;;;4.82;;
79025;SDS011;71097;44.760;37.726;2023-08-20T03:36:47;10.40;;;4.70;;
79025;SDS011;71097;44.760;37.726;2023-08-20T03:37:48;10.13;;;5.45;;
79025;SDS011;71097;44.760;37.726;2023-08-20T03:38:50;9.75;;;5.22;;
79025;SDS011;71097;44.760;37.726;2023-08-20T03:39:52;12.98;;;4.75;;
79025;SDS011;71097;44.760;37.726;2023-08-20T03:40:54;9.82;;;5.65;;
79025;SDS011;71097;44.760;37.726;2023-08-20T03:41:57;8.98;;;4.97;;
79025;SDS011;71097;44.760;37.726;2023-08-20T03:42:58;7.07;;;4.90;;
79025;SDS011;71097;44.760;37.726;2023-08-20T03:44:00;10.77;;;5.20;;
79025;SDS011;71097;44.760;37.726;2023-08-20T03:45:01;12.63;;;4.45;;
79025;SDS011;71097;44.760;37.726;2023-08-20T03:46:03;6.82;;;4.78;;
79025;SDS011;71097;44.760;37.726;2023-08-20T03:47:04;8.35;;;4.57;;
79025;SDS011;71097;44.760;37.726;2023-08-20T03:48:06;9.15;;;4.88;;
79025;SDS011;71097;44.760;37.726;2023-08-20T03:49:08;7.35;;;4.20;;
79025;SDS011;71097;44.760;37.726;2023-08-20T03:50:09;10.50;;;5.63;;
79025;SDS011;71097;44.760;37.726;2023-08-20T03:51:11;9.50;;;4.68;;
79025;SDS011;71097;44.760;37.726;2023-08-20T03:52:14;9.95;;;5.00;;
79025;SDS011;71097;44.760;37.726;2023-08-20T03:53:17;7.07;;;4.57;;
79025;SDS011;71097;44.760;37.726;2023-08-20T03:54:39;9.43;;;5.15;;
79025;SDS011;71097;44.760;37.726;2023-08-20T03:55:40;8.00;;;4.75;;
79025;SDS011;71097;44.760;37.726;2023-08-20T03:56:43;10.27;;;5.22;;
79025;SDS011;71097;44.760;37.726;2023-08-20T03:57:45;10.90;;;4.88;;
79025;SDS011;71097;44.760;37.726;2023-08-20T03:58:46;9.38;;;4.57;;
79025;SDS011;71097;44.760;37.726;2023-08-20T03:59:48;11.02;;;4.85;;
79025;SDS011;71097;44.760;37.726;2023-08-20T04:00:50;8.05;;;5.15;;
79025;SDS011;71097;44.760;37.726;2023-08-20T04:01:52;11.38;;;4.57;;
79025;SDS011;71097;44.760;37.726;2023-08-20T04:03:13;7.68;;;4.50;;
79025;SDS011;71097;44.760;37.726;2023-08-20T04:04:16;7.32;;;4.30;;
79025;SDS011;71097;44.760;37.726;2023-08-20T04:05:17;9.85;;;4.80;;
79025;SDS011;71097;44.760;37.726;2023-08-20T04:06:19;7.13;;;4.55;;
79025;SDS011;71097;44.760;37.726;2023-08-20T04:07:20;7.00;;;4.35;;
79025;SDS011;71097;44.760;37.726;2023-08-20T04:08:22;5.70;;;4.00;;
79025;SDS011;71097;44.760;37.726;2023-08-20T04:09:23;7.85;;;4.25;;
79025;SDS011;71097;44.760;37.726;2023-08-20T04:10:46;9.57;;;4.38;;
79025;SDS011;71097;44.760;37.726;2023-08-20T04:12:08;6.80;;;4.30;;
79025;SDS011;71097;44.760;37.726;2023-08-20T04:14:14;7.43;;;4.60;;
79025;SDS011;71097;44.760;37.726;2023-08-20T04:15:16;6.50;;;4.60;;
79025;SDS011;71097;44.760;37.726;2023-08-20T04:16:18;8.50;;;4.75;;
79025;SDS011;71097;44.760;37.726;2023-08-20T04:17:19;7.55;;;4.70;;
79025;SDS011;71097;44.760;37.726;2023-08-20T04:18:21;9.10;;;4.75;;
79025;SDS011;71097;44.760;37.726;2023-08-20T04:19:23;7.88;;;5.03;;
79025;SDS011;71097;44.760;37.726;2023-08-20T04:20:26;7.95;;;4.30;;
79025;SDS011;71097;44.760;37.726;2023-08-20T04:21:27;7.43;;;4.00;;
79025;SDS011;71097;44.760;37.726;2023-08-20T04:22:29;6.00;;;3.63;;
79025;SDS011;71097;44.760;37.726;2023-08-20T04:23:53;9.18;;;4.45;;
79025;SDS011;71097;44.760;37.726;2023-08-20T04:24:59;7.20;;;4.95;;
79025;SDS011;71097;44.760;37.726;2023-08-20T04:26:00;6.43;;;3.78;;
79025;SDS011;71097;44.760;37.726;2023-08-20T04:27:02;6.20;;;3.83;;
79025;SDS011;71097;44.760;37.726;2023-08-20T04:28:04;10.10;;;4.28;;
79025;SDS011;71097;44.760;37.726;2023-08-20T04:29:06;5.88;;;3.78;;
79025;SDS011;71097;44.760;37.726;2023-08-20T04:30:11;6.18;;;4.45;;
79025;SDS011;71097;44.760;37.726;2023-08-20T04:31:20;10.00;;;4.35;;
79025;SDS011;71097;44.760;37.726;2023-08-20T04:32:28;6.78;;;3.50;;
79025;SDS011;71097;44.760;37.726;2023-08-20T04:33:30;8.63;;;3.72;;
79025;SDS011;71097;44.760;37.726;2023-08-20T04:34:31;6.82;;;3.92;;
79025;SDS011;71097;44.760;37.726;2023-08-20T04:35:33;8.15;;;3.70;;
79025;SDS011;71097;44.760;37.726;2023-08-20T04:36:35;4.90;;;4.05;;
79025;SDS011;71097;44.760;37.726;2023-08-20T04:37:36;9.05;;;4.30;;
79025;SDS011;71097;44.760;37.726;2023-08-20T04:38:38;7.60;;;4.53;;
79025;SDS011;71097;44.760;37.726;2023-08-20T04:39:42;7.85;;;4.57;;
79025;SDS011;71097;44.760;37.726;2023-08-20T04:40:47;6.47;;;4.13;;
79025;SDS011;71097;44.760;37.726;2023-08-20T04:41:49;6.40;;;4.45;;
79025;SDS011;71097;44.760;37.726;2023-08-20T04:42:53;5.53;;;4.18;;
79025;SDS011;71097;44.760;37.726;2023-08-20T04:43:55;6.65;;;4.78;;
79025;SDS011;71097;44.760;37.726;2023-08-20T04:44:58;9.35;;;4.43;;
79025;SDS011;71097;44.760;37.726;2023-08-20T04:46:01;7.65;;;4.38;;
79025;SDS011;71097;44.760;37.726;2023-08-20T04:47:03;6.18;;;4.15;;
79025;SDS011;71097;44.760;37.726;2023-08-20T04:48:07;7.50;;;4.43;;
79025;SDS011;71097;44.760;37.726;2023-08-20T04:49:10;6.47;;;4.28;;
79025;SDS011;71097;44.760;37.726;2023-08-20T04:50:12;12.43;;;4.55;;
79025;SDS011;71097;44.760;37.726;2023-08-20T04:51:14;5.88;;;4.03;;
79025;SDS011;71097;44.760;37.726;2023-08-20T04:52:19;6.47;;;3.60;;
79025;SDS011;71097;44.760;37.726;2023-08-20T04:53:21;5.85;;;4.00;;
79025;SDS011;71097;44.760;37.726;2023-08-20T04:54:23;6.97;;;4.13;;
79025;SDS011;71097;44.760;37.726;2023-08-20T04:55:28;6.05;;;3.88;;
79025;SDS011;71097;44.760;37.726;2023-08-20T04:56:29;7.25;;;3.92;;
79025;SDS011;71097;44.760;37.726;2023-08-20T04:57:31;6.95;;;4.70;;
79025;SDS011;71097;44.760;37.726;2023-08-20T04:58:33;7.15;;;3.63;;
79025;SDS011;71097;44.760;37.726;2023-08-20T04:59:35;5.45;;;3.67;;
79025;SDS011;71097;44.760;37.726;2023-08-20T05:00:37;7.57;;;4.32;;
79025;SDS011;71097;44.760;37.726;2023-08-20T05:01:42;4.53;;;3.10;;
79025;SDS011;71097;44.760;37.726;2023-08-20T05:03:50;5.85;;;3.40;;
79025;SDS011;71097;44.760;37.726;2023-08-20T05:04:52;7.22;;;3.83;;
79025;SDS011;71097;44.760;37.726;2023-08-20T05:05:53;6.05;;;3.13;;
79025;SDS011;71097;44.760;37.726;2023-08-20T05:06:57;4.85;;;3.35;;
79025;SDS011;71097;44.760;37.726;2023-08-20T05:07:59;5.00;;;2.92;;
79025;SDS011;71097;44.760;37.726;2023-08-20T05:09:00;4.22;;;2.60;;
79025;SDS011;71097;44.760;37.726;2023-08-20T05:10:02;4.63;;;3.00;;
79025;SDS011;71097;44.760;37.726;2023-08-20T05:11:04;4.78;;;2.80;;
79025;SDS011;71097;44.760;37.726;2023-08-20T05:12:07;5.72;;;3.33;;
79025;SDS011;71097;44.760;37.726;2023-08-20T05:13:09;5.43;;;3.10;;
79025;SDS011;71097;44.760;37.726;2023-08-20T05:14:11;4.43;;;2.80;;
79025;SDS011;71097;44.760;37.726;2023-08-20T05:15:13;4.55;;;2.80;;
79025;SDS011;71097;44.760;37.726;2023-08-20T05:16:15;6.38;;;2.90;;
79025;SDS011;71097;44.760;37.726;2023-08-20T05:17:37;5.38;;;3.13;;
79025;SDS011;71097;44.760;37.726;2023-08-20T05:18:40;6.38;;;3.72;;
79025;SDS011;71097;44.760;37.726;2023-08-20T05:19:42;5.65;;;2.67;;
79025;SDS011;71097;44.760;37.726;2023-08-20T05:20:44;4.20;;;3.10;;
79025;SDS011;71097;44.760;37.726;2023-08-20T05:21:46;3.95;;;3.03;;
79025;SDS011;71097;44.760;37.726;2023-08-20T05:23:08;6.38;;;4.55;;
79025;SDS011;71097;44.760;37.726;2023-08-20T05:24:30;6.07;;;3.40;;
79025;SDS011;71097;44.760;37.726;2023-08-20T05:27:13;6.32;;;3.22;;
79025;SDS011;71097;44.760;37.726;2023-08-20T05:28:20;4.72;;;3.05;;
79025;SDS011;71097;44.760;37.726;2023-08-20T05:29:42;5.38;;;3.33;;
79025;SDS011;71097;44.760;37.726;2023-08-20T05:31:04;7.15;;;3.13;;
79025;SDS011;71097;44.760;37.726;2023-08-20T05:32:27;7.75;;;3.00;;
79025;SDS011;71097;44.760;37.726;2023-08-20T05:33:28;4.50;;;2.85;;
79025;SDS011;71097;44.760;37.726;2023-08-20T05:34:33;5.05;;;2.70;;
79025;SDS011;71097;44.760;37.726;2023-08-20T05:35:55;6.35;;;2.95;;
79025;SDS011;71097;44.760;37.726;2023-08-20T05:36:57;5.60;;;3.10;;
79025;SDS011;71097;44.760;37.726;2023-08-20T05:37:59;5.45;;;3.53;;
79025;SDS011;71097;44.760;37.726;2023-08-20T05:39:02;6.18;;;3.20;;
79025;SDS011;71097;44.760;37.726;2023-08-20T05:40:04;4.75;;;3.17;;
79025;SDS011;71097;44.760;37.726;2023-08-20T05:41:10;6.47;;;3.88;;
79025;SDS011;71097;44.760;37.726;2023-08-20T05:42:32;5.18;;;3.28;;
79025;SDS011;71097;44.760;37.726;2023-08-20T05:43:39;5.22;;;3.05;;
79025;SDS011;71097;44.760;37.726;2023-08-20T05:45:01;4.45;;;3.45;;
79025;SDS011;71097;44.760;37.726;2023-08-20T05:46:24;6.85;;;3.17;;
79025;SDS011;71097;44.760;37.726;2023-08-20T05:47:46;6.25;;;3.35;;
79025;SDS011;71097;44.760;37.726;2023-08-20T05:48:47;4.72;;;2.65;;
79025;SDS011;71097;44.760;37.726;2023-08-20T05:50:09;6.20;;;3.38;;
79025;SDS011;71097;44.760;37.726;2023-08-20T05:51:11;8.27;;;3.55;;
79025;SDS011;71097;44.760;37.726;2023-08-20T05:52:34;5.05;;;3.17;;
79025;SDS011;71097;44.760;37.726;2023-08-20T05:53:55;4.63;;;3.30;;
79025;SDS011;71097;44.760;37.726;2023-08-20T05:54:57;5.18;;;3.17;;
79025;SDS011;71097;44.760;37.726;2023-08-20T05:55:58;5.22;;;2.95;;
79025;SDS011;71097;44.760;37.726;2023-08-20T05:57:01;5.60;;;3.40;;
79025;SDS011;71097;44.760;37.726;2023-08-20T05:58:03;5.07;;;2.70;;
79025;SDS011;71097;44.760;37.726;2023-08-20T05:59:05;5.03;;;3.63;;
79025;SDS011;71097;44.760;37.726;2023-08-20T06:00:07;4.18;;;2.60;;
79025;SDS011;71097;44.760;37.726;2023-08-20T06:01:34;5.38;;;2.80;;
79025;SDS011;71097;44.760;37.726;2023-08-20T06:02:35;4.95;;;2.70;;
79025;SDS011;71097;44.760;37.726;2023-08-20T06:03:39;5.40;;;2.75;;
79025;SDS011;71097;44.760;37.726;2023-08-20T06:04:41;6.85;;;2.92;;
79025;SDS011;71097;44.760;37.726;2023-08-20T06:05:44;4.88;;;2.90;;
79025;SDS011;71097;44.760;37.726;2023-08-20T06:06:47;3.70;;;2.50;;
79025;SDS011;71097;44.760;37.726;2023-08-20T06:07:48;6.55;;;3.28;;
79025;SDS011;71097;44.760;37.726;2023-08-20T06:08:50;5.43;;;2.60;;
79025;SDS011;71097;44.760;37.726;2023-08-20T06:09:51;4.40;;;2.67;;
79025;SDS011;71097;44.760;37.726;2023-08-20T06:10:55;4.68;;;3.05;;
79025;SDS011;71097;44.760;37.726;2023-08-20T06:11:56;4.90;;;2.80;;
79025;SDS011;71097;44.760;37.726;2023-08-20T06:13:18;4.05;;;3.35;;
79025;SDS011;71097;44.760;37.726;2023-08-20T06:14:19;5.55;;;2.90;;
79025;SDS011;71097;44.760;37.726;2023-08-20T06:15:21;5.03;;;3.35;;
79025;SDS011;71097;44.760;37.726;2023-08-20T06:16:23;4.60;;;2.78;;
79025;SDS011;71097;44.760;37.726;2023-08-20T06:17:24;5.30;;;2.72;;
79025;SDS011;71097;44.760;37.726;2023-08-20T06:18:27;5.55;;;3.50;;
79025;SDS011;71097;44.760;37.726;2023-08-20T06:20:54;5.18;;;2.92;;
79025;SDS011;71097;44.760;37.726;2023-08-20T06:21:56;5.80;;;2.95;;
79025;SDS011;71097;44.760;37.726;2023-08-20T06:22:58;4.15;;;2.50;;
79025;SDS011;71097;44.760;37.726;2023-08-20T06:24:00;5.57;;;2.88;;
79025;SDS011;71097;44.760;37.726;2023-08-20T06:25:02;6.72;;;2.88;;
79025;SDS011;71097;44.760;37.726;2023-08-20T06:26:04;5.30;;;2.72;;
79025;SDS011;71097;44.760;37.726;2023-08-20T06:27:07;4.75;;;2.70;;
79025;SDS011;71097;44.760;37.726;2023-08-20T06:28:11;4.18;;;2.60;;
79025;SDS011;71097;44.760;37.726;2023-08-20T06:29:13;5.97;;;2.50;;
79025;SDS011;71097;44.760;37.726;2023-08-20T06:30:15;4.85;;;2.85;;
79025;SDS011;71097;44.760;37.726;2023-08-20T06:31:37;6.10;;;3.60;;
79025;SDS011;71097;44.760;37.726;2023-08-20T06:32:38;6.05;;;2.97;;
79025;SDS011;71097;44.760;37.726;2023-08-20T06:34:00;4.22;;;2.60;;
79025;SDS011;71097;44.760;37.726;2023-08-20T06:35:01;7.85;;;3.67;;
79025;SDS011;71097;44.760;37.726;2023-08-20T06:36:03;6.07;;;3.38;;
79025;SDS011;71097;44.760;37.726;2023-08-20T06:37:08;6.40;;;3.47;;
79025;SDS011;71097;44.760;37.726;2023-08-20T06:38:09;5.93;;;3.72;;
79025;SDS011;71097;44.760;37.726;2023-08-20T06:39:31;6.18;;;4.20;;
79025;SDS011;71097;44.760;37.726;2023-08-20T06:40:33;4.28;;;2.50;;
79025;SDS011;71097;44.760;37.726;2023-08-20T06:41:54;3.90;;;2.70;;
79025;SDS011;71097;44.760;37.726;2023-08-20T06:43:16;7.05;;;4.03;;
79025;SDS011;71097;44.760;37.726;2023-08-20T06:44:38;6.75;;;3.40;;
79025;SDS011;71097;44.760;37.726;2023-08-20T06:46:00;5.07;;;3.25;;
79025;SDS011;71097;44.760;37.726;2023-08-20T06:48:48;5.78;;;2.78;;
79025;SDS011;71097;44.760;37.726;2023-08-20T06:50:10;7.40;;;3.08;;
79025;SDS011;71097;44.760;37.726;2023-08-20T06:51:30;8.38;;;2.83;;